Terminal Aerodrome Forecast
Issued by NWS

Home | Current Version | Previous Version | Text Only | Print | Product List | Glossary On
Versions: 1 2 3 4 5 6 7 8 9 10 11 12
369
FTUS46 KMFR 232334
TAFRBG
TAF
KRBG 232334Z 2400/2424 01015G24KT P6SM SCT100
     FM240600 36008KT P6SM SCT080
     FM241900 01010G18KT P6SM SCT080=

USA.gov is the U.S. government's official web portal to all federal, state and local government web resources and services.